Wedderburn, OR (97491)

10:29 AM PDT on September 16, 2014 (GMT -0700)
Weather Hawk | Change Station
CLOSE
Current Station
Personal Weather Station
Location: Gold Beach, OR
Elevation: 128 ft
Nearby Weather Stations

Elev 128 ft 42.53 °N, 124.39 °W | Updated 5 seconds ago

Clear
Clear
72.9 °F
Feels Like 76 °F
N
3.1
Wind Variable Wind from SW
Gusts 4.5 mph

Today
High -- | Low -- °F
--% Chance of Precip.
Yesterday
High -- | Low -- °F
Precip. -- in
6:58 AM 7:25 PM
Last Quarter, 44% visible
Pressure 29.95 in
Visibility 10.0 miles
Clouds Clear
Heat Index 76 °F
Dew Point 60 °F
Humidity 63%
Rainfall 0.00 in
Snow Depth 0 in , 0 in , 0 in
UV 3 out of 12
Pollen 4.20 out of 12
Air Quality Not available.
Flu Activity Not available.
METAR KBOK 161656Z AUTO VRB05KT 10SM CLR 17/13 A2995 RMK AO2 T01720133 SLP141

More Conditions Fewer Conditions

Pressure 29.95 in
Visibility 10.0 miles
Clouds Clear
Heat Index 76 °F
Dew Point 60 °F
Humidity 63%
Rainfall 0.00 in
Snow Depth 0 in , 0 in , 0 in
UV 3 out of 12
Pollen 4.20 out of 12
Air Quality Not available.
Flu Activity Not available.
METAR KBOK 161656Z AUTO VRB05KT 10SM CLR 17/13 A2995 RMK AO2 T01720133 SLP141

More Conditions Fewer Conditions

10-Day Weather Forecast

Almanac

Astronomy

Sep. 16, 2014 Rise Set
Actual Time 6:58 AM PDT 7:25 PM PDT
Civil Twilight 6:30 AM PDT 7:53 PM PDT
Nautical Twilight 5:57 AM PDT 8:26 PM PDT
Astronomical Twilight 5:22 AM PDT 9:00 PM PDT
Moon 12:07 AM PDT 2:58 PM PDT
Length of Visible Light 13h 23m
Length of Day
12h 26m
Tomorrow will be 2m 50s shorter.
Last Quarter, 44% of the Moon is Illuminated
Today
Last Quarter
Sep 24
New
Oct 1
First Quarter
Oct 8
Full
Oct 15
Last Quarter

Today's Extremes

State Highs State Lows

Community

WunderPhotos

Upload Photos

1,753,838 photos uploaded!

Nearby

Snow Depth

Station Depth Elevation
Sevenmile Marsh 0 in 6200 ft
Clackamas Lake 0 in 3400 ft
Fish Creek 0 in 7900 ft
Lucky Strike 0 in 5050 ft
Mud Ridge 0 in 3800 ft

Earthquake Activity

City Distance Mag. Time & Date
No recent earthquake activity has been reported nearby.
Minimum magnitude displayed is 2.5.

Coastal Water Temperatures

Place Temperature
Port Orford, OR 55.0 °F
Crescent City, CA 60.1 °F
Charleston, OR 52.0 °F

Nearby Weather Stations